sensor_id;sensor_type;location;lat;lon;timestamp;P1;durP1;ratioP1;P2;durP2;ratioP2
3949;SDS011;53057;50.988;6.314;2023-07-31T00:01:45;13.60;;;6.50;;
3949;SDS011;53057;50.988;6.314;2023-07-31T00:04:11;12.07;;;4.30;;
3949;SDS011;53057;50.988;6.314;2023-07-31T00:06:38;13.13;;;6.50;;
3949;SDS011;53057;50.988;6.314;2023-07-31T00:09:05;12.10;;;5.63;;
3949;SDS011;53057;50.988;6.314;2023-07-31T00:11:31;12.60;;;5.63;;
3949;SDS011;53057;50.988;6.314;2023-07-31T00:13:58;21.57;;;5.70;;
3949;SDS011;53057;50.988;6.314;2023-07-31T00:16:25;12.47;;;4.57;;
3949;SDS011;53057;50.988;6.314;2023-07-31T00:18:52;13.03;;;4.90;;
3949;SDS011;53057;50.988;6.314;2023-07-31T00:21:18;15.00;;;5.00;;
3949;SDS011;53057;50.988;6.314;2023-07-31T00:23:45;17.83;;;4.57;;
3949;SDS011;53057;50.988;6.314;2023-07-31T00:26:12;18.87;;;6.40;;
3949;SDS011;53057;50.988;6.314;2023-07-31T00:28:38;10.83;;;4.37;;
3949;SDS011;53057;50.988;6.314;2023-07-31T00:31:05;13.30;;;5.00;;
3949;SDS011;53057;50.988;6.314;2023-07-31T00:33:34;11.77;;;4.40;;
3949;SDS011;53057;50.988;6.314;2023-07-31T00:36:02;10.90;;;4.60;;
3949;SDS011;53057;50.988;6.314;2023-07-31T00:38:29;11.50;;;5.27;;
3949;SDS011;53057;50.988;6.314;2023-07-31T00:40:55;18.73;;;5.20;;
3949;SDS011;53057;50.988;6.314;2023-07-31T00:43:22;22.10;;;4.17;;
3949;SDS011;53057;50.988;6.314;2023-07-31T00:45:49;20.80;;;6.00;;
3949;SDS011;53057;50.988;6.314;2023-07-31T00:48:16;10.37;;;4.27;;
3949;SDS011;53057;50.988;6.314;2023-07-31T00:50:42;18.67;;;5.73;;
3949;SDS011;53057;50.988;6.314;2023-07-31T00:53:09;14.83;;;4.30;;
3949;SDS011;53057;50.988;6.314;2023-07-31T00:55:35;10.53;;;4.07;;
3949;SDS011;53057;50.988;6.314;2023-07-31T00:58:02;14.03;;;4.47;;
3949;SDS011;53057;50.988;6.314;2023-07-31T01:00:29;13.87;;;5.63;;
3949;SDS011;53057;50.988;6.314;2023-07-31T01:02:55;13.53;;;5.30;;
3949;SDS011;53057;50.988;6.314;2023-07-31T01:05:36;18.23;;;5.17;;
3949;SDS011;53057;50.988;6.314;2023-07-31T01:08:24;23.00;;;5.90;;
3949;SDS011;53057;50.988;6.314;2023-07-31T01:10:56;8.93;;;5.47;;
3949;SDS011;53057;50.988;6.314;2023-07-31T01:13:24;8.93;;;5.20;;
3949;SDS011;53057;50.988;6.314;2023-07-31T01:15:51;10.00;;;5.73;;
3949;SDS011;53057;50.988;6.314;2023-07-31T01:18:17;12.47;;;5.97;;
3949;SDS011;53057;50.988;6.314;2023-07-31T01:20:44;15.57;;;5.40;;
3949;SDS011;53057;50.988;6.314;2023-07-31T01:26:05;22.67;;;4.93;;
3949;SDS011;53057;50.988;6.314;2023-07-31T01:31:22;18.60;;;5.30;;
3949;SDS011;53057;50.988;6.314;2023-07-31T01:33:50;11.43;;;4.60;;
3949;SDS011;53057;50.988;6.314;2023-07-31T01:36:18;16.50;;;5.63;;
3949;SDS011;53057;50.988;6.314;2023-07-31T01:38:45;18.30;;;6.53;;
3949;SDS011;53057;50.988;6.314;2023-07-31T01:41:12;19.80;;;6.00;;
3949;SDS011;53057;50.988;6.314;2023-07-31T01:43:39;11.93;;;4.80;;
3949;SDS011;53057;50.988;6.314;2023-07-31T01:46:06;10.73;;;4.73;;
3949;SDS011;53057;50.988;6.314;2023-07-31T01:48:32;16.77;;;4.77;;
3949;SDS011;53057;50.988;6.314;2023-07-31T01:51:02;12.10;;;5.00;;
3949;SDS011;53057;50.988;6.314;2023-07-31T01:53:30;13.60;;;4.93;;
3949;SDS011;53057;50.988;6.314;2023-07-31T01:55:57;11.87;;;4.80;;
3949;SDS011;53057;50.988;6.314;2023-07-31T01:58:23;22.50;;;4.70;;
3949;SDS011;53057;50.988;6.314;2023-07-31T02:00:50;11.50;;;4.57;;
3949;SDS011;53057;50.988;6.314;2023-07-31T02:03:17;12.50;;;4.90;;
3949;SDS011;53057;50.988;6.314;2023-07-31T02:05:47;16.93;;;5.10;;
3949;SDS011;53057;50.988;6.314;2023-07-31T02:08:14;15.23;;;4.63;;
3949;SDS011;53057;50.988;6.314;2023-07-31T02:10:41;14.73;;;5.20;;
3949;SDS011;53057;50.988;6.314;2023-07-31T02:13:07;11.77;;;5.10;;
3949;SDS011;53057;50.988;6.314;2023-07-31T02:15:35;14.50;;;5.63;;
3949;SDS011;53057;50.988;6.314;2023-07-31T02:18:01;12.23;;;5.67;;
3949;SDS011;53057;50.988;6.314;2023-07-31T02:20:29;10.77;;;5.33;;
3949;SDS011;53057;50.988;6.314;2023-07-31T02:22:56;16.60;;;6.00;;
3949;SDS011;53057;50.988;6.314;2023-07-31T02:25:22;11.67;;;5.30;;
3949;SDS011;53057;50.988;6.314;2023-07-31T02:27:49;17.03;;;5.47;;
3949;SDS011;53057;50.988;6.314;2023-07-31T02:30:16;12.87;;;4.80;;
3949;SDS011;53057;50.988;6.314;2023-07-31T02:32:43;14.60;;;5.37;;
3949;SDS011;53057;50.988;6.314;2023-07-31T02:35:10;10.20;;;5.23;;
3949;SDS011;53057;50.988;6.314;2023-07-31T02:37:37;10.67;;;5.50;;
3949;SDS011;53057;50.988;6.314;2023-07-31T02:40:05;15.20;;;6.37;;
3949;SDS011;53057;50.988;6.314;2023-07-31T02:42:32;19.27;;;6.40;;
3949;SDS011;53057;50.988;6.314;2023-07-31T02:44:58;20.73;;;6.87;;
3949;SDS011;53057;50.988;6.314;2023-07-31T02:47:25;8.10;;;4.53;;
3949;SDS011;53057;50.988;6.314;2023-07-31T02:49:52;18.80;;;6.60;;
3949;SDS011;53057;50.988;6.314;2023-07-31T02:52:19;17.07;;;6.53;;
3949;SDS011;53057;50.988;6.314;2023-07-31T02:54:46;13.60;;;5.10;;
3949;SDS011;53057;50.988;6.314;2023-07-31T02:57:12;13.37;;;5.63;;
3949;SDS011;53057;50.988;6.314;2023-07-31T02:59:40;20.40;;;6.83;;
3949;SDS011;53057;50.988;6.314;2023-07-31T03:02:06;9.70;;;5.67;;
3949;SDS011;53057;50.988;6.314;2023-07-31T03:04:33;14.23;;;6.60;;
3949;SDS011;53057;50.988;6.314;2023-07-31T03:06:59;17.30;;;6.87;;
3949;SDS011;53057;50.988;6.314;2023-07-31T03:09:26;13.00;;;5.47;;
3949;SDS011;53057;50.988;6.314;2023-07-31T03:11:53;12.33;;;6.47;;
3949;SDS011;53057;50.988;6.314;2023-07-31T03:14:19;18.23;;;6.30;;
3949;SDS011;53057;50.988;6.314;2023-07-31T03:16:46;22.43;;;9.10;;
3949;SDS011;53057;50.988;6.314;2023-07-31T03:19:12;12.90;;;6.37;;
3949;SDS011;53057;50.988;6.314;2023-07-31T03:21:39;17.27;;;6.67;;
3949;SDS011;53057;50.988;6.314;2023-07-31T03:24:06;17.47;;;6.00;;
3949;SDS011;53057;50.988;6.314;2023-07-31T03:26:32;10.47;;;5.87;;
3949;SDS011;53057;50.988;6.314;2023-07-31T03:28:59;30.13;;;6.80;;
3949;SDS011;53057;50.988;6.314;2023-07-31T03:31:25;14.17;;;6.20;;
3949;SDS011;53057;50.988;6.314;2023-07-31T03:33:52;17.07;;;5.57;;
3949;SDS011;53057;50.988;6.314;2023-07-31T03:36:19;21.87;;;6.57;;
3949;SDS011;53057;50.988;6.314;2023-07-31T03:38:46;13.03;;;6.10;;
3949;SDS011;53057;50.988;6.314;2023-07-31T03:41:13;13.10;;;6.40;;
3949;SDS011;53057;50.988;6.314;2023-07-31T03:43:39;19.50;;;7.40;;
3949;SDS011;53057;50.988;6.314;2023-07-31T03:46:06;13.63;;;6.00;;
3949;SDS011;53057;50.988;6.314;2023-07-31T03:48:33;13.73;;;6.97;;
3949;SDS011;53057;50.988;6.314;2023-07-31T03:51:00;14.70;;;6.93;;
3949;SDS011;53057;50.988;6.314;2023-07-31T03:53:26;13.90;;;6.70;;
3949;SDS011;53057;50.988;6.314;2023-07-31T03:55:53;15.07;;;6.50;;
3949;SDS011;53057;50.988;6.314;2023-07-31T03:58:19;14.83;;;5.63;;
3949;SDS011;53057;50.988;6.314;2023-07-31T04:00:47;11.93;;;6.00;;
3949;SDS011;53057;50.988;6.314;2023-07-31T04:03:13;11.53;;;5.90;;
3949;SDS011;53057;50.988;6.314;2023-07-31T04:05:40;17.30;;;7.60;;
3949;SDS011;53057;50.988;6.314;2023-07-31T04:08:07;20.37;;;6.27;;
3949;SDS011;53057;50.988;6.314;2023-07-31T04:10:34;12.43;;;5.97;;
3949;SDS011;53057;50.988;6.314;2023-07-31T04:13:00;11.40;;;6.40;;
3949;SDS011;53057;50.988;6.314;2023-07-31T04:15:27;12.23;;;5.80;;
3949;SDS011;53057;50.988;6.314;2023-07-31T04:17:54;9.40;;;5.47;;
3949;SDS011;53057;50.988;6.314;2023-07-31T04:20:20;13.90;;;6.43;;
3949;SDS011;53057;50.988;6.314;2023-07-31T04:22:48;10.57;;;5.30;;
3949;SDS011;53057;50.988;6.314;2023-07-31T04:25:14;14.30;;;6.23;;
3949;SDS011;53057;50.988;6.314;2023-07-31T04:27:41;11.60;;;6.80;;
3949;SDS011;53057;50.988;6.314;2023-07-31T04:30:08;11.30;;;5.33;;
3949;SDS011;53057;50.988;6.314;2023-07-31T04:32:34;11.20;;;6.63;;
3949;SDS011;53057;50.988;6.314;2023-07-31T04:35:02;16.77;;;6.53;;
3949;SDS011;53057;50.988;6.314;2023-07-31T04:37:28;10.30;;;5.50;;
3949;SDS011;53057;50.988;6.314;2023-07-31T04:39:55;15.37;;;6.03;;
3949;SDS011;53057;50.988;6.314;2023-07-31T04:42:22;11.07;;;5.10;;
3949;SDS011;53057;50.988;6.314;2023-07-31T04:44:49;9.70;;;5.30;;
3949;SDS011;53057;50.988;6.314;2023-07-31T04:47:15;9.30;;;4.97;;
3949;SDS011;53057;50.988;6.314;2023-07-31T04:49:42;11.43;;;5.73;;
3949;SDS011;53057;50.988;6.314;2023-07-31T04:52:08;9.07;;;5.17;;
3949;SDS011;53057;50.988;6.314;2023-07-31T04:54:35;8.87;;;5.10;;
3949;SDS011;53057;50.988;6.314;2023-07-31T04:57:01;6.83;;;4.43;;
3949;SDS011;53057;50.988;6.314;2023-07-31T04:59:28;7.27;;;4.50;;
3949;SDS011;53057;50.988;6.314;2023-07-31T05:01:54;7.90;;;3.97;;
3949;SDS011;53057;50.988;6.314;2023-07-31T05:04:21;6.53;;;3.30;;
3949;SDS011;53057;50.988;6.314;2023-07-31T05:06:48;7.63;;;4.97;;
3949;SDS011;53057;50.988;6.314;2023-07-31T05:09:15;6.30;;;3.10;;
3949;SDS011;53057;50.988;6.314;2023-07-31T05:11:41;7.03;;;3.97;;
3949;SDS011;53057;50.988;6.314;2023-07-31T05:14:09;8.37;;;4.13;;
3949;SDS011;53057;50.988;6.314;2023-07-31T05:16:36;9.33;;;4.30;;
3949;SDS011;53057;50.988;6.314;2023-07-31T05:19:03;9.17;;;5.70;;
3949;SDS011;53057;50.988;6.314;2023-07-31T05:21:29;6.70;;;4.87;;
3949;SDS011;53057;50.988;6.314;2023-07-31T05:23:56;21.77;;;4.43;;
3949;SDS011;53057;50.988;6.314;2023-07-31T05:26:23;7.30;;;4.70;;
3949;SDS011;53057;50.988;6.314;2023-07-31T05:28:49;9.27;;;3.40;;
3949;SDS011;53057;50.988;6.314;2023-07-31T05:31:16;6.47;;;3.53;;
3949;SDS011;53057;50.988;6.314;2023-07-31T05:33:42;11.00;;;5.43;;
3949;SDS011;53057;50.988;6.314;2023-07-31T05:36:10;9.07;;;4.13;;
3949;SDS011;53057;50.988;6.314;2023-07-31T05:38:37;8.43;;;4.40;;
3949;SDS011;53057;50.988;6.314;2023-07-31T05:41:04;10.03;;;5.10;;
3949;SDS011;53057;50.988;6.314;2023-07-31T05:43:31;11.43;;;4.30;;
3949;SDS011;53057;50.988;6.314;2023-07-31T05:45:58;9.17;;;4.43;;
3949;SDS011;53057;50.988;6.314;2023-07-31T05:48:24;16.50;;;5.60;;
3949;SDS011;53057;50.988;6.314;2023-07-31T05:50:51;10.20;;;4.50;;
3949;SDS011;53057;50.988;6.314;2023-07-31T05:53:17;10.70;;;4.90;;
3949;SDS011;53057;50.988;6.314;2023-07-31T05:55:44;12.87;;;4.93;;
3949;SDS011;53057;50.988;6.314;2023-07-31T05:58:10;7.10;;;3.90;;
3949;SDS011;53057;50.988;6.314;2023-07-31T06:00:37;11.50;;;4.50;;
3949;SDS011;53057;50.988;6.314;2023-07-31T06:03:04;13.33;;;5.40;;
3949;SDS011;53057;50.988;6.314;2023-07-31T06:05:31;10.43;;;4.93;;
3949;SDS011;53057;50.988;6.314;2023-07-31T06:07:57;12.67;;;5.10;;
3949;SDS011;53057;50.988;6.314;2023-07-31T06:10:24;12.10;;;5.37;;
3949;SDS011;53057;50.988;6.314;2023-07-31T06:12:50;16.73;;;4.37;;
3949;SDS011;53057;50.988;6.314;2023-07-31T06:15:17;10.73;;;4.13;;
3949;SDS011;53057;50.988;6.314;2023-07-31T06:17:47;16.00;;;5.73;;
3949;SDS011;53057;50.988;6.314;2023-07-31T06:20:14;10.80;;;4.53;;
3949;SDS011;53057;50.988;6.314;2023-07-31T06:22:41;8.27;;;4.23;;
3949;SDS011;53057;50.988;6.314;2023-07-31T06:25:07;12.60;;;5.00;;
3949;SDS011;53057;50.988;6.314;2023-07-31T06:27:36;9.00;;;5.33;;
3949;SDS011;53057;50.988;6.314;2023-07-31T06:30:03;11.47;;;5.20;;
3949;SDS011;53057;50.988;6.314;2023-07-31T06:32:30;7.70;;;5.00;;
3949;SDS011;53057;50.988;6.314;2023-07-31T06:34:57;10.83;;;5.10;;
3949;SDS011;53057;50.988;6.314;2023-07-31T06:37:23;8.50;;;4.67;;
3949;SDS011;53057;50.988;6.314;2023-07-31T06:39:50;12.43;;;5.30;;
3949;SDS011;53057;50.988;6.314;2023-07-31T06:42:16;9.63;;;3.97;;
3949;SDS011;53057;50.988;6.314;2023-07-31T06:44:43;8.47;;;4.53;;
3949;SDS011;53057;50.988;6.314;2023-07-31T06:47:10;10.20;;;4.17;;
3949;SDS011;53057;50.988;6.314;2023-07-31T06:49:36;7.83;;;4.23;;
3949;SDS011;53057;50.988;6.314;2023-07-31T06:52:03;7.70;;;4.17;;
3949;SDS011;53057;50.988;6.314;2023-07-31T06:54:30;13.50;;;4.90;;
3949;SDS011;53057;50.988;6.314;2023-07-31T06:56:56;9.70;;;3.37;;
3949;SDS011;53057;50.988;6.314;2023-07-31T06:59:23;14.00;;;5.10;;
3949;SDS011;53057;50.988;6.314;2023-07-31T07:01:50;14.03;;;6.00;;
3949;SDS011;53057;50.988;6.314;2023-07-31T07:04:16;13.60;;;5.63;;
3949;SDS011;53057;50.988;6.314;2023-07-31T07:06:43;4.83;;;3.40;;
3949;SDS011;53057;50.988;6.314;2023-07-31T07:09:11;17.00;;;5.27;;
3949;SDS011;53057;50.988;6.314;2023-07-31T07:11:40;6.57;;;4.27;;
3949;SDS011;53057;50.988;6.314;2023-07-31T07:14:06;9.67;;;4.17;;
3949;SDS011;53057;50.988;6.314;2023-07-31T07:16:33;6.23;;;4.30;;
3949;SDS011;53057;50.988;6.314;2023-07-31T07:19:00;7.30;;;4.80;;
3949;SDS011;53057;50.988;6.314;2023-07-31T07:21:30;11.77;;;4.97;;
3949;SDS011;53057;50.988;6.314;2023-07-31T07:23:57;13.20;;;6.10;;
3949;SDS011;53057;50.988;6.314;2023-07-31T07:26:24;10.77;;;4.63;;
3949;SDS011;53057;50.988;6.314;2023-07-31T07:28:50;16.37;;;5.80;;
3949;SDS011;53057;50.988;6.314;2023-07-31T07:31:17;6.07;;;4.03;;
3949;SDS011;53057;50.988;6.314;2023-07-31T07:33:44;15.47;;;5.50;;
3949;SDS011;53057;50.988;6.314;2023-07-31T07:36:10;7.83;;;5.07;;
3949;SDS011;53057;50.988;6.314;2023-07-31T07:38:39;11.27;;;5.87;;
3949;SDS011;53057;50.988;6.314;2023-07-31T07:41:06;11.37;;;5.30;;
3949;SDS011;53057;50.988;6.314;2023-07-31T07:43:33;7.00;;;3.90;;
3949;SDS011;53057;50.988;6.314;2023-07-31T07:45:59;9.30;;;5.47;;
3949;SDS011;53057;50.988;6.314;2023-07-31T07:48:26;6.30;;;3.97;;
3949;SDS011;53057;50.988;6.314;2023-07-31T07:50:52;10.73;;;4.90;;
3949;SDS011;53057;50.988;6.314;2023-07-31T07:53:19;5.53;;;3.40;;
3949;SDS011;53057;50.988;6.314;2023-07-31T07:55:46;5.70;;;3.43;;
3949;SDS011;53057;50.988;6.314;2023-07-31T07:58:12;15.43;;;4.40;;
3949;SDS011;53057;50.988;6.314;2023-07-31T08:00:39;4.37;;;3.40;;
3949;SDS011;53057;50.988;6.314;2023-07-31T08:03:06;10.00;;;4.87;;
3949;SDS011;53057;50.988;6.314;2023-07-31T08:05:33;12.97;;;4.47;;
3949;SDS011;53057;50.988;6.314;2023-07-31T08:08:01;4.47;;;2.90;;
3949;SDS011;53057;50.988;6.314;2023-07-31T08:10:27;10.00;;;4.90;;
3949;SDS011;53057;50.988;6.314;2023-07-31T08:12:54;10.43;;;5.10;;
3949;SDS011;53057;50.988;6.314;2023-07-31T08:15:21;10.27;;;3.80;;
3949;SDS011;53057;50.988;6.314;2023-07-31T08:17:48;5.03;;;2.80;;
3949;SDS011;53057;50.988;6.314;2023-07-31T08:20:15;15.33;;;6.63;;
3949;SDS011;53057;50.988;6.314;2023-07-31T08:22:41;7.03;;;3.87;;
3949;SDS011;53057;50.988;6.314;2023-07-31T08:25:08;14.40;;;4.77;;
3949;SDS011;53057;50.988;6.314;2023-07-31T08:27:35;6.17;;;4.20;;
3949;SDS011;53057;50.988;6.314;2023-07-31T08:30:02;6.47;;;4.00;;
3949;SDS011;53057;50.988;6.314;2023-07-31T08:32:29;7.03;;;3.90;;
3949;SDS011;53057;50.988;6.314;2023-07-31T08:34:55;10.80;;;3.53;;
3949;SDS011;53057;50.988;6.314;2023-07-31T08:37:22;7.27;;;3.93;;
3949;SDS011;53057;50.988;6.314;2023-07-31T08:39:50;5.40;;;3.23;;
3949;SDS011;53057;50.988;6.314;2023-07-31T08:42:16;8.37;;;4.20;;
3949;SDS011;53057;50.988;6.314;2023-07-31T08:44:43;7.80;;;3.90;;
3949;SDS011;53057;50.988;6.314;2023-07-31T08:47:11;5.57;;;4.70;;
3949;SDS011;53057;50.988;6.314;2023-07-31T08:49:38;8.63;;;4.90;;
3949;SDS011;53057;50.988;6.314;2023-07-31T08:52:06;6.93;;;4.77;;
3949;SDS011;53057;50.988;6.314;2023-07-31T08:54:33;5.00;;;3.70;;
3949;SDS011;53057;50.988;6.314;2023-07-31T08:57:00;16.47;;;3.70;;
3949;SDS011;53057;50.988;6.314;2023-07-31T08:59:30;5.63;;;3.80;;
3949;SDS011;53057;50.988;6.314;2023-07-31T09:01:58;7.87;;;3.80;;
3949;SDS011;53057;50.988;6.314;2023-07-31T09:04:28;6.90;;;4.03;;
3949;SDS011;53057;50.988;6.314;2023-07-31T09:06:57;11.23;;;4.80;;
3949;SDS011;53057;50.988;6.314;2023-07-31T09:09:25;12.47;;;4.20;;
3949;SDS011;53057;50.988;6.314;2023-07-31T09:11:52;6.07;;;3.43;;
3949;SDS011;53057;50.988;6.314;2023-07-31T09:14:19;4.47;;;3.73;;
3949;SDS011;53057;50.988;6.314;2023-07-31T09:16:53;15.13;;;3.97;;
3949;SDS011;53057;50.988;6.314;2023-07-31T09:21:53;6.20;;;2.80;;
3949;SDS011;53057;50.988;6.314;2023-07-31T09:24:27;8.50;;;3.70;;
3949;SDS011;53057;50.988;6.314;2023-07-31T09:26:54;3.80;;;2.90;;
3949;SDS011;53057;50.988;6.314;2023-07-31T09:29:26;9.30;;;3.50;;
3949;SDS011;53057;50.988;6.314;2023-07-31T09:31:53;7.37;;;4.40;;
3949;SDS011;53057;50.988;6.314;2023-07-31T09:34:27;6.10;;;4.40;;
3949;SDS011;53057;50.988;6.314;2023-07-31T09:36:54;5.37;;;3.43;;
3949;SDS011;53057;50.988;6.314;2023-07-31T09:39:21;15.70;;;3.90;;
3949;SDS011;53057;50.988;6.314;2023-07-31T09:41:55;5.07;;;3.80;;
3949;SDS011;53057;50.988;6.314;2023-07-31T09:44:37;7.30;;;3.40;;
3949;SDS011;53057;50.988;6.314;2023-07-31T09:47:04;4.30;;;3.90;;
3949;SDS011;53057;50.988;6.314;2023-07-31T09:49:30;23.60;;;5.53;;
3949;SDS011;53057;50.988;6.314;2023-07-31T09:51:57;7.63;;;4.07;;
3949;SDS011;53057;50.988;6.314;2023-07-31T09:54:24;4.77;;;3.93;;
3949;SDS011;53057;50.988;6.314;2023-07-31T09:56:51;7.47;;;4.10;;
3949;SDS011;53057;50.988;6.314;2023-07-31T09:59:19;9.27;;;5.07;;
3949;SDS011;53057;50.988;6.314;2023-07-31T10:01:49;9.97;;;4.90;;
3949;SDS011;53057;50.988;6.314;2023-07-31T10:04:17;7.23;;;3.73;;
3949;SDS011;53057;50.988;6.314;2023-07-31T10:06:45;18.10;;;6.20;;
3949;SDS011;53057;50.988;6.314;2023-07-31T10:09:13;8.20;;;4.73;;
3949;SDS011;53057;50.988;6.314;2023-07-31T10:11:43;6.70;;;4.03;;
3949;SDS011;53057;50.988;6.314;2023-07-31T10:14:20;7.13;;;5.00;;
3949;SDS011;53057;50.988;6.314;2023-07-31T10:16:47;7.13;;;2.97;;
3949;SDS011;53057;50.988;6.314;2023-07-31T10:19:13;6.20;;;3.73;;
3949;SDS011;53057;50.988;6.314;2023-07-31T10:21:40;8.40;;;3.80;;
3949;SDS011;53057;50.988;6.314;2023-07-31T10:24:08;4.60;;;3.03;;
3949;SDS011;53057;50.988;6.314;2023-07-31T10:26:35;5.50;;;3.00;;
3949;SDS011;53057;50.988;6.314;2023-07-31T10:29:04;2.80;;;2.00;;
3949;SDS011;53057;50.988;6.314;2023-07-31T10:31:31;6.73;;;3.30;;
3949;SDS011;53057;50.988;6.314;2023-07-31T10:33:59;4.07;;;2.10;;
3949;SDS011;53057;50.988;6.314;2023-07-31T10:36:26;5.60;;;3.03;;
3949;SDS011;53057;50.988;6.314;2023-07-31T10:38:54;4.17;;;3.00;;
3949;SDS011;53057;50.988;6.314;2023-07-31T10:41:31;6.70;;;2.50;;
3949;SDS011;53057;50.988;6.314;2023-07-31T10:43:59;3.20;;;2.23;;
3949;SDS011;53057;50.988;6.314;2023-07-31T10:46:27;4.40;;;2.20;;
3949;SDS011;53057;50.988;6.314;2023-07-31T10:48:57;3.60;;;2.20;;
3949;SDS011;53057;50.988;6.314;2023-07-31T10:51:26;4.83;;;1.50;;
3949;SDS011;53057;50.988;6.314;2023-07-31T10:54:14;2.03;;;1.60;;
3949;SDS011;53057;50.988;6.314;2023-07-31T10:56:45;2.60;;;1.80;;
3949;SDS011;53057;50.988;6.314;2023-07-31T10:59:13;31.17;;;2.10;;
3949;SDS011;53057;50.988;6.314;2023-07-31T11:01:50;1.50;;;1.40;;
3949;SDS011;53057;50.988;6.314;2023-07-31T11:04:21;2.87;;;1.67;;
3949;SDS011;53057;50.988;6.314;2023-07-31T11:06:58;4.00;;;1.93;;
3949;SDS011;53057;50.988;6.314;2023-07-31T11:09:27;2.43;;;1.80;;
3949;SDS011;53057;50.988;6.314;2023-07-31T11:11:54;1.40;;;1.30;;
3949;SDS011;53057;50.988;6.314;2023-07-31T11:14:20;1.70;;;1.60;;
3949;SDS011;53057;50.988;6.314;2023-07-31T11:16:49;1.30;;;1.10;;
3949;SDS011;53057;50.988;6.314;2023-07-31T11:19:21;1.93;;;1.20;;
3949;SDS011;53057;50.988;6.314;2023-07-31T11:21:47;2.83;;;1.70;;
3949;SDS011;53057;50.988;6.314;2023-07-31T11:24:14;3.83;;;1.70;;
3949;SDS011;53057;50.988;6.314;2023-07-31T11:26:48;2.80;;;1.87;;
3949;SDS011;53057;50.988;6.314;2023-07-31T11:29:14;2.20;;;1.40;;
3949;SDS011;53057;50.988;6.314;2023-07-31T11:31:44;12.33;;;2.77;;
3949;SDS011;53057;50.988;6.314;2023-07-31T11:34:11;1.53;;;1.27;;
3949;SDS011;53057;50.988;6.314;2023-07-31T11:36:37;2.30;;;1.90;;
3949;SDS011;53057;50.988;6.314;2023-07-31T11:39:05;1.80;;;1.70;;
3949;SDS011;53057;50.988;6.314;2023-07-31T11:41:32;2.60;;;1.60;;
3949;SDS011;53057;50.988;6.314;2023-07-31T11:43:59;3.17;;;1.70;;
3949;SDS011;53057;50.988;6.314;2023-07-31T11:46:42;3.77;;;2.33;;
3949;SDS011;53057;50.988;6.314;2023-07-31T11:49:09;4.40;;;2.57;;
3949;SDS011;53057;50.988;6.314;2023-07-31T11:51:36;7.27;;;2.67;;
3949;SDS011;53057;50.988;6.314;2023-07-31T11:54:02;2.80;;;2.00;;
3949;SDS011;53057;50.988;6.314;2023-07-31T11:56:29;2.90;;;2.53;;
3949;SDS011;53057;50.988;6.314;2023-07-31T11:58:57;5.73;;;2.87;;
3949;SDS011;53057;50.988;6.314;2023-07-31T12:01:24;7.17;;;2.73;;
3949;SDS011;53057;50.988;6.314;2023-07-31T12:03:52;3.93;;;2.53;;
3949;SDS011;53057;50.988;6.314;2023-07-31T12:06:19;5.23;;;3.27;;
3949;SDS011;53057;50.988;6.314;2023-07-31T12:08:47;6.23;;;4.27;;
3949;SDS011;53057;50.988;6.314;2023-07-31T12:11:15;6.10;;;2.57;;
3949;SDS011;53057;50.988;6.314;2023-07-31T12:13:44;6.10;;;3.00;;
3949;SDS011;53057;50.988;6.314;2023-07-31T12:16:10;6.00;;;3.87;;
3949;SDS011;53057;50.988;6.314;2023-07-31T12:18:37;7.30;;;3.03;;
3949;SDS011;53057;50.988;6.314;2023-07-31T12:21:05;4.87;;;3.77;;
3949;SDS011;53057;50.988;6.314;2023-07-31T12:23:33;4.90;;;3.47;;
3949;SDS011;53057;50.988;6.314;2023-07-31T12:26:07;4.00;;;2.67;;
3949;SDS011;53057;50.988;6.314;2023-07-31T12:28:35;3.47;;;2.80;;
3949;SDS011;53057;50.988;6.314;2023-07-31T12:31:01;6.20;;;2.80;;
3949;SDS011;53057;50.988;6.314;2023-07-31T12:33:32;5.13;;;2.77;;
3949;SDS011;53057;50.988;6.314;2023-07-31T12:36:00;5.73;;;3.00;;
3949;SDS011;53057;50.988;6.314;2023-07-31T12:38:27;3.77;;;2.80;;
3949;SDS011;53057;50.988;6.314;2023-07-31T12:40:53;6.00;;;3.57;;
3949;SDS011;53057;50.988;6.314;2023-07-31T12:43:20;3.93;;;3.10;;
3949;SDS011;53057;50.988;6.314;2023-07-31T12:45:47;6.70;;;3.67;;
3949;SDS011;53057;50.988;6.314;2023-07-31T12:48:14;10.73;;;3.37;;
3949;SDS011;53057;50.988;6.314;2023-07-31T12:50:40;10.90;;;3.57;;
3949;SDS011;53057;50.988;6.314;2023-07-31T12:53:07;2.77;;;2.57;;
3949;SDS011;53057;50.988;6.314;2023-07-31T12:55:34;7.53;;;3.90;;
3949;SDS011;53057;50.988;6.314;2023-07-31T12:58:01;3.23;;;2.93;;
3949;SDS011;53057;50.988;6.314;2023-07-31T13:00:27;8.33;;;3.93;;
3949;SDS011;53057;50.988;6.314;2023-07-31T13:02:54;4.60;;;3.00;;
3949;SDS011;53057;50.988;6.314;2023-07-31T13:05:21;5.03;;;3.73;;
3949;SDS011;53057;50.988;6.314;2023-07-31T13:07:48;5.90;;;2.60;;
3949;SDS011;53057;50.988;6.314;2023-07-31T13:10:18;3.63;;;2.00;;
3949;SDS011;53057;50.988;6.314;2023-07-31T13:12:44;2.57;;;2.07;;
3949;SDS011;53057;50.988;6.314;2023-07-31T13:15:11;2.77;;;2.53;;
3949;SDS011;53057;50.988;6.314;2023-07-31T13:17:38;6.50;;;3.53;;
3949;SDS011;53057;50.988;6.314;2023-07-31T13:20:04;4.87;;;3.43;;
3949;SDS011;53057;50.988;6.314;2023-07-31T13:22:31;4.23;;;2.80;;
3949;SDS011;53057;50.988;6.314;2023-07-31T13:24:58;2.50;;;2.07;;
3949;SDS011;53057;50.988;6.314;2023-07-31T13:27:25;4.23;;;2.83;;
3949;SDS011;53057;50.988;6.314;2023-07-31T13:29:51;4.57;;;2.90;;
3949;SDS011;53057;50.988;6.314;2023-07-31T13:32:18;2.83;;;2.10;;
3949;SDS011;53057;50.988;6.314;2023-07-31T13:34:46;4.27;;;2.70;;
3949;SDS011;53057;50.988;6.314;2023-07-31T13:37:13;1.60;;;1.50;;
3949;SDS011;53057;50.988;6.314;2023-07-31T13:39:40;4.83;;;3.07;;
3949;SDS011;53057;50.988;6.314;2023-07-31T13:42:07;3.67;;;2.83;;
3949;SDS011;53057;50.988;6.314;2023-07-31T13:44:34;8.90;;;3.07;;
3949;SDS011;53057;50.988;6.314;2023-07-31T13:47:01;3.90;;;2.90;;
3949;SDS011;53057;50.988;6.314;2023-07-31T13:49:28;3.90;;;2.60;;
3949;SDS011;53057;50.988;6.314;2023-07-31T13:51:55;5.53;;;2.53;;
3949;SDS011;53057;50.988;6.314;2023-07-31T13:54:22;5.77;;;3.20;;
3949;SDS011;53057;50.988;6.314;2023-07-31T13:56:49;12.53;;;3.40;;
3949;SDS011;53057;50.988;6.314;2023-07-31T13:59:16;8.43;;;3.47;;
3949;SDS011;53057;50.988;6.314;2023-07-31T14:01:43;8.80;;;3.07;;
3949;SDS011;53057;50.988;6.314;2023-07-31T14:04:10;5.00;;;3.30;;
3949;SDS011;53057;50.988;6.314;2023-07-31T14:06:36;9.70;;;4.40;;
3949;SDS011;53057;50.988;6.314;2023-07-31T14:09:03;8.67;;;3.57;;
3949;SDS011;53057;50.988;6.314;2023-07-31T14:11:30;9.57;;;4.73;;
3949;SDS011;53057;50.988;6.314;2023-07-31T14:13:57;11.80;;;3.77;;
3949;SDS011;53057;50.988;6.314;2023-07-31T14:16:24;8.73;;;4.77;;
3949;SDS011;53057;50.988;6.314;2023-07-31T14:18:51;5.37;;;3.27;;
3949;SDS011;53057;50.988;6.314;2023-07-31T14:21:20;4.97;;;3.40;;
3949;SDS011;53057;50.988;6.314;2023-07-31T14:23:46;4.60;;;3.20;;
3949;SDS011;53057;50.988;6.314;2023-07-31T14:26:13;3.10;;;2.77;;
3949;SDS011;53057;50.988;6.314;2023-07-31T14:28:40;7.10;;;4.30;;
3949;SDS011;53057;50.988;6.314;2023-07-31T14:31:06;6.63;;;4.13;;
3949;SDS011;53057;50.988;6.314;2023-07-31T14:33:33;5.10;;;3.87;;
3949;SDS011;53057;50.988;6.314;2023-07-31T14:36:00;8.60;;;4.40;;
3949;SDS011;53057;50.988;6.314;2023-07-31T14:38:27;8.13;;;4.60;;
3949;SDS011;53057;50.988;6.314;2023-07-31T14:40:53;7.43;;;4.10;;
3949;SDS011;53057;50.988;6.314;2023-07-31T14:43:20;6.70;;;4.27;;
3949;SDS011;53057;50.988;6.314;2023-07-31T14:45:46;7.87;;;4.20;;
3949;SDS011;53057;50.988;6.314;2023-07-31T14:48:13;5.00;;;3.27;;
3949;SDS011;53057;50.988;6.314;2023-07-31T14:50:39;7.67;;;4.90;;
3949;SDS011;53057;50.988;6.314;2023-07-31T14:53:06;5.83;;;3.30;;
3949;SDS011;53057;50.988;6.314;2023-07-31T14:55:32;3.83;;;2.73;;
3949;SDS011;53057;50.988;6.314;2023-07-31T14:57:59;7.17;;;4.17;;
3949;SDS011;53057;50.988;6.314;2023-07-31T15:00:26;11.00;;;3.40;;
3949;SDS011;53057;50.988;6.314;2023-07-31T15:02:52;4.77;;;3.63;;
3949;SDS011;53057;50.988;6.314;2023-07-31T15:05:19;5.53;;;3.33;;